RJNG(METAR)
02/28 05:00
METAR RJNG 272000Z VRB02KT 9999 FEW040 M01/M02 Q1024 RMK 1SC040
A3025=
戻る
トップページへ戻る
IMOC Co,.Ltd.